sensor_id;sensor_type;location;lat;lon;timestamp;temperature;humidity
74420;DHT22;62855;50.718;-2.460;2023-05-14T00:02:07;51.44;76.00
74420;DHT22;62855;50.718;-2.460;2023-05-14T00:05:07;51.44;76.00
74420;DHT22;62855;50.718;-2.460;2023-05-14T00:08:06;51.26;76.00
74420;DHT22;62855;50.718;-2.460;2023-05-14T00:11:06;51.26;76.00
74420;DHT22;62855;50.718;-2.460;2023-05-14T00:14:06;51.08;76.00
74420;DHT22;62855;50.718;-2.460;2023-05-14T00:17:06;51.08;75.00
74420;DHT22;62855;50.718;-2.460;2023-05-14T00:20:07;50.90;75.00
74420;DHT22;62855;50.718;-2.460;2023-05-14T00:23:06;50.90;76.00
74420;DHT22;62855;50.718;-2.460;2023-05-14T00:26:06;50.90;76.00
74420;DHT22;62855;50.718;-2.460;2023-05-14T00:29:06;50.72;76.00
74420;DHT22;62855;50.718;-2.460;2023-05-14T00:32:06;50.72;76.00
74420;DHT22;62855;50.718;-2.460;2023-05-14T00:35:06;50.72;76.00
74420;DHT22;62855;50.718;-2.460;2023-05-14T00:38:06;50.72;76.00
74420;DHT22;62855;50.718;-2.460;2023-05-14T00:41:06;50.54;76.00
74420;DHT22;62855;50.718;-2.460;2023-05-14T00:44:06;50.54;76.00
74420;DHT22;62855;50.718;-2.460;2023-05-14T00:47:06;50.54;76.00
74420;DHT22;62855;50.718;-2.460;2023-05-14T00:50:07;50.54;76.00
74420;DHT22;62855;50.718;-2.460;2023-05-14T00:53:07;50.54;76.00
74420;DHT22;62855;50.718;-2.460;2023-05-14T00:56:06;50.36;76.00
74420;DHT22;62855;50.718;-2.460;2023-05-14T00:59:06;50.36;76.00
74420;DHT22;62855;50.718;-2.460;2023-05-14T01:02:06;50.36;76.00
74420;DHT22;62855;50.718;-2.460;2023-05-14T01:05:07;50.36;76.00
74420;DHT22;62855;50.718;-2.460;2023-05-14T01:08:12;50.18;76.00
74420;DHT22;62855;50.718;-2.460;2023-05-14T01:11:11;50.18;76.00
74420;DHT22;62855;50.718;-2.460;2023-05-14T01:14:13;50.00;76.00
74420;DHT22;62855;50.718;-2.460;2023-05-14T01:17:07;50.00;77.00
74420;DHT22;62855;50.718;-2.460;2023-05-14T01:20:07;49.82;77.00
74420;DHT22;62855;50.718;-2.460;2023-05-14T01:23:06;49.82;77.00
74420;DHT22;62855;50.718;-2.460;2023-05-14T01:26:06;49.64;77.00
74420;DHT22;62855;50.718;-2.460;2023-05-14T01:29:12;49.64;77.00
74420;DHT22;62855;50.718;-2.460;2023-05-14T01:32:07;49.64;77.00
74420;DHT22;62855;50.718;-2.460;2023-05-14T01:35:07;49.46;77.00
74420;DHT22;62855;50.718;-2.460;2023-05-14T01:38:09;49.46;77.00
74420;DHT22;62855;50.718;-2.460;2023-05-14T01:41:06;49.46;77.00
74420;DHT22;62855;50.718;-2.460;2023-05-14T01:44:07;49.46;77.00
74420;DHT22;62855;50.718;-2.460;2023-05-14T01:47:06;49.46;77.00
74420;DHT22;62855;50.718;-2.460;2023-05-14T01:50:07;49.10;77.00
74420;DHT22;62855;50.718;-2.460;2023-05-14T01:53:06;48.92;77.00
74420;DHT22;62855;50.718;-2.460;2023-05-14T01:56:06;48.92;77.00
74420;DHT22;62855;50.718;-2.460;2023-05-14T01:59:06;48.74;77.00
74420;DHT22;62855;50.718;-2.460;2023-05-14T02:02:06;48.56;77.00
74420;DHT22;62855;50.718;-2.460;2023-05-14T02:05:08;48.38;77.00
74420;DHT22;62855;50.718;-2.460;2023-05-14T02:08:06;48.38;77.00
74420;DHT22;62855;50.718;-2.460;2023-05-14T02:11:06;48.38;77.00
74420;DHT22;62855;50.718;-2.460;2023-05-14T02:14:06;48.20;77.00
74420;DHT22;62855;50.718;-2.460;2023-05-14T02:17:06;48.20;77.00
74420;DHT22;62855;50.718;-2.460;2023-05-14T02:20:07;48.20;77.00
74420;DHT22;62855;50.718;-2.460;2023-05-14T02:23:06;48.20;77.00
74420;DHT22;62855;50.718;-2.460;2023-05-14T02:26:08;48.02;77.00
74420;DHT22;62855;50.718;-2.460;2023-05-14T02:29:06;48.02;77.00
74420;DHT22;62855;50.718;-2.460;2023-05-14T02:32:06;48.02;77.00
74420;DHT22;62855;50.718;-2.460;2023-05-14T02:35:06;48.02;77.00
74420;DHT22;62855;50.718;-2.460;2023-05-14T02:38:06;48.02;77.00
74420;DHT22;62855;50.718;-2.460;2023-05-14T02:41:06;48.02;77.00
74420;DHT22;62855;50.718;-2.460;2023-05-14T02:44:06;48.02;78.00
74420;DHT22;62855;50.718;-2.460;2023-05-14T02:47:06;48.02;78.00
74420;DHT22;62855;50.718;-2.460;2023-05-14T02:50:07;48.02;78.00
74420;DHT22;62855;50.718;-2.460;2023-05-14T02:53:07;48.02;78.00
74420;DHT22;62855;50.718;-2.460;2023-05-14T02:56:06;48.02;78.00
74420;DHT22;62855;50.718;-2.460;2023-05-14T02:59:07;48.02;78.00
74420;DHT22;62855;50.718;-2.460;2023-05-14T03:02:06;48.02;78.00
74420;DHT22;62855;50.718;-2.460;2023-05-14T03:05:07;48.02;78.00
74420;DHT22;62855;50.718;-2.460;2023-05-14T03:08:07;47.84;78.00
74420;DHT22;62855;50.718;-2.460;2023-05-14T03:11:06;47.84;78.00
74420;DHT22;62855;50.718;-2.460;2023-05-14T03:14:06;47.66;78.00
74420;DHT22;62855;50.718;-2.460;2023-05-14T03:17:06;47.48;78.00
74420;DHT22;62855;50.718;-2.460;2023-05-14T03:20:07;47.48;78.00
74420;DHT22;62855;50.718;-2.460;2023-05-14T03:23:06;47.30;78.00
74420;DHT22;62855;50.718;-2.460;2023-05-14T03:26:06;47.30;78.00
74420;DHT22;62855;50.718;-2.460;2023-05-14T03:29:06;47.12;78.00
74420;DHT22;62855;50.718;-2.460;2023-05-14T03:32:06;47.12;78.00
74420;DHT22;62855;50.718;-2.460;2023-05-14T03:35:07;47.12;78.00
74420;DHT22;62855;50.718;-2.460;2023-05-14T03:38:07;47.12;78.00
74420;DHT22;62855;50.718;-2.460;2023-05-14T03:41:06;46.94;78.00
74420;DHT22;62855;50.718;-2.460;2023-05-14T03:44:06;46.76;78.00
74420;DHT22;62855;50.718;-2.460;2023-05-14T03:47:06;46.76;78.00
74420;DHT22;62855;50.718;-2.460;2023-05-14T03:50:08;46.76;78.00
74420;DHT22;62855;50.718;-2.460;2023-05-14T03:53:06;46.58;78.00
74420;DHT22;62855;50.718;-2.460;2023-05-14T03:56:06;46.40;78.00
74420;DHT22;62855;50.718;-2.460;2023-05-14T03:59:06;46.40;78.00
74420;DHT22;62855;50.718;-2.460;2023-05-14T04:02:06;46.40;78.00
74420;DHT22;62855;50.718;-2.460;2023-05-14T04:05:06;46.40;78.00
74420;DHT22;62855;50.718;-2.460;2023-05-14T04:08:06;46.40;78.00
74420;DHT22;62855;50.718;-2.460;2023-05-14T04:11:06;46.22;78.00
74420;DHT22;62855;50.718;-2.460;2023-05-14T04:14:06;46.22;78.00
74420;DHT22;62855;50.718;-2.460;2023-05-14T04:17:06;46.22;78.00
74420;DHT22;62855;50.718;-2.460;2023-05-14T04:20:07;46.40;78.00
74420;DHT22;62855;50.718;-2.460;2023-05-14T04:23:06;46.40;78.00
74420;DHT22;62855;50.718;-2.460;2023-05-14T04:26:06;46.40;78.00
74420;DHT22;62855;50.718;-2.460;2023-05-14T04:29:06;46.40;78.00
74420;DHT22;62855;50.718;-2.460;2023-05-14T04:32:06;46.58;78.00
74420;DHT22;62855;50.718;-2.460;2023-05-14T04:35:07;46.40;78.00
74420;DHT22;62855;50.718;-2.460;2023-05-14T04:38:06;46.22;78.00
74420;DHT22;62855;50.718;-2.460;2023-05-14T04:41:06;46.04;78.00
74420;DHT22;62855;50.718;-2.460;2023-05-14T04:44:06;44.78;78.00
74420;DHT22;62855;50.718;-2.460;2023-05-14T04:47:06;44.60;78.00
74420;DHT22;62855;50.718;-2.460;2023-05-14T04:50:08;44.60;78.00
74420;DHT22;62855;50.718;-2.460;2023-05-14T04:53:06;44.60;78.00
74420;DHT22;62855;50.718;-2.460;2023-05-14T04:56:06;44.42;78.00
74420;DHT22;62855;50.718;-2.460;2023-05-14T04:59:06;44.42;78.00
74420;DHT22;62855;50.718;-2.460;2023-05-14T05:02:17;44.42;78.00
74420;DHT22;62855;50.718;-2.460;2023-05-14T05:05:07;44.42;78.00
74420;DHT22;62855;50.718;-2.460;2023-05-14T05:08:06;44.42;78.00
74420;DHT22;62855;50.718;-2.460;2023-05-14T05:11:06;44.42;78.00
74420;DHT22;62855;50.718;-2.460;2023-05-14T05:14:06;44.42;78.00
74420;DHT22;62855;50.718;-2.460;2023-05-14T05:17:06;44.60;78.00
74420;DHT22;62855;50.718;-2.460;2023-05-14T05:20:07;44.78;78.00
74420;DHT22;62855;50.718;-2.460;2023-05-14T05:23:07;44.78;78.00
74420;DHT22;62855;50.718;-2.460;2023-05-14T05:26:06;44.78;78.00
74420;DHT22;62855;50.718;-2.460;2023-05-14T05:29:06;44.96;78.00
74420;DHT22;62855;50.718;-2.460;2023-05-14T05:32:07;45.14;78.00
74420;DHT22;62855;50.718;-2.460;2023-05-14T05:35:07;45.32;78.00
74420;DHT22;62855;50.718;-2.460;2023-05-14T05:38:06;45.32;78.00
74420;DHT22;62855;50.718;-2.460;2023-05-14T05:41:06;45.32;78.00
74420;DHT22;62855;50.718;-2.460;2023-05-14T05:44:06;45.50;78.00
74420;DHT22;62855;50.718;-2.460;2023-05-14T05:47:06;45.32;78.00
74420;DHT22;62855;50.718;-2.460;2023-05-14T05:50:07;45.14;78.00
74420;DHT22;62855;50.718;-2.460;2023-05-14T05:53:06;45.14;78.00
74420;DHT22;62855;50.718;-2.460;2023-05-14T05:56:06;45.32;78.00
74420;DHT22;62855;50.718;-2.460;2023-05-14T05:59:06;45.50;78.00
74420;DHT22;62855;50.718;-2.460;2023-05-14T06:02:07;45.50;78.00
74420;DHT22;62855;50.718;-2.460;2023-05-14T06:05:08;45.68;78.00
74420;DHT22;62855;50.718;-2.460;2023-05-14T06:08:06;45.86;78.00
74420;DHT22;62855;50.718;-2.460;2023-05-14T06:11:06;45.86;78.00
74420;DHT22;62855;50.718;-2.460;2023-05-14T06:14:06;46.04;78.00
74420;DHT22;62855;50.718;-2.460;2023-05-14T06:17:06;46.04;78.00
74420;DHT22;62855;50.718;-2.460;2023-05-14T06:20:07;46.04;78.00
74420;DHT22;62855;50.718;-2.460;2023-05-14T06:23:06;46.04;78.00
74420;DHT22;62855;50.718;-2.460;2023-05-14T06:26:06;46.04;78.00
74420;DHT22;62855;50.718;-2.460;2023-05-14T06:29:06;46.04;78.00
74420;DHT22;62855;50.718;-2.460;2023-05-14T06:32:07;46.40;78.00
74420;DHT22;62855;50.718;-2.460;2023-05-14T06:35:08;46.40;78.00
74420;DHT22;62855;50.718;-2.460;2023-05-14T06:38:06;46.58;78.00
74420;DHT22;62855;50.718;-2.460;2023-05-14T06:41:06;46.58;78.00
74420;DHT22;62855;50.718;-2.460;2023-05-14T06:44:06;46.94;78.00
74420;DHT22;62855;50.718;-2.460;2023-05-14T06:47:06;47.12;78.00
74420;DHT22;62855;50.718;-2.460;2023-05-14T06:50:06;47.48;78.00
74420;DHT22;62855;50.718;-2.460;2023-05-14T06:53:06;47.48;78.00
74420;DHT22;62855;50.718;-2.460;2023-05-14T06:56:06;47.84;78.00
74420;DHT22;62855;50.718;-2.460;2023-05-14T06:59:06;48.02;78.00
74420;DHT22;62855;50.718;-2.460;2023-05-14T07:02:06;48.20;78.00
74420;DHT22;62855;50.718;-2.460;2023-05-14T07:05:06;48.56;78.00
74420;DHT22;62855;50.718;-2.460;2023-05-14T07:08:07;48.92;78.00
74420;DHT22;62855;50.718;-2.460;2023-05-14T07:11:06;49.28;78.00
74420;DHT22;62855;50.718;-2.460;2023-05-14T07:14:06;49.46;78.00
74420;DHT22;62855;50.718;-2.460;2023-05-14T07:17:06;49.82;78.00
74420;DHT22;62855;50.718;-2.460;2023-05-14T07:20:07;50.18;78.00
74420;DHT22;62855;50.718;-2.460;2023-05-14T07:23:06;50.54;78.00
74420;DHT22;62855;50.718;-2.460;2023-05-14T07:26:06;50.72;78.00
74420;DHT22;62855;50.718;-2.460;2023-05-14T07:29:06;51.08;78.00
74420;DHT22;62855;50.718;-2.460;2023-05-14T07:32:06;51.44;78.00
74420;DHT22;62855;50.718;-2.460;2023-05-14T07:35:06;51.80;78.00
74420;DHT22;62855;50.718;-2.460;2023-05-14T07:38:06;51.98;78.00
74420;DHT22;62855;50.718;-2.460;2023-05-14T07:41:06;52.34;78.00
74420;DHT22;62855;50.718;-2.460;2023-05-14T07:44:06;52.88;78.00
74420;DHT22;62855;50.718;-2.460;2023-05-14T07:47:06;53.06;78.00
74420;DHT22;62855;50.718;-2.460;2023-05-14T07:50:07;53.42;78.00
74420;DHT22;62855;50.718;-2.460;2023-05-14T07:53:06;53.78;84.00
74420;DHT22;62855;50.718;-2.460;2023-05-14T07:56:07;54.32;83.00
74420;DHT22;62855;50.718;-2.460;2023-05-14T07:59:06;54.68;83.00
74420;DHT22;62855;50.718;-2.460;2023-05-14T08:02:06;54.68;81.00
74420;DHT22;62855;50.718;-2.460;2023-05-14T08:05:07;55.04;81.00
74420;DHT22;62855;50.718;-2.460;2023-05-14T08:08:07;55.58;81.00
74420;DHT22;62855;50.718;-2.460;2023-05-14T08:11:06;56.12;80.00
74420;DHT22;62855;50.718;-2.460;2023-05-14T08:14:06;56.66;80.00
74420;DHT22;62855;50.718;-2.460;2023-05-14T08:17:07;57.20;80.00
74420;DHT22;62855;50.718;-2.460;2023-05-14T08:20:07;57.74;79.00
74420;DHT22;62855;50.718;-2.460;2023-05-14T08:23:06;57.92;78.00
74420;DHT22;62855;50.718;-2.460;2023-05-14T08:26:06;57.92;77.00
74420;DHT22;62855;50.718;-2.460;2023-05-14T08:29:06;58.28;78.00
74420;DHT22;62855;50.718;-2.460;2023-05-14T08:32:08;58.46;77.00
74420;DHT22;62855;50.718;-2.460;2023-05-14T08:35:07;58.82;77.00
74420;DHT22;62855;50.718;-2.460;2023-05-14T08:38:06;59.00;76.00
74420;DHT22;62855;50.718;-2.460;2023-05-14T08:41:06;59.18;75.00
74420;DHT22;62855;50.718;-2.460;2023-05-14T08:44:11;59.54;75.00
74420;DHT22;62855;50.718;-2.460;2023-05-14T08:47:06;59.90;74.00
74420;DHT22;62855;50.718;-2.460;2023-05-14T08:50:06;60.08;74.00
74420;DHT22;62855;50.718;-2.460;2023-05-14T08:53:06;60.44;73.00
74420;DHT22;62855;50.718;-2.460;2023-05-14T08:56:07;60.80;73.00
74420;DHT22;62855;50.718;-2.460;2023-05-14T08:59:06;61.52;74.00
74420;DHT22;62855;50.718;-2.460;2023-05-14T09:02:08;62.24;73.00
74420;DHT22;62855;50.718;-2.460;2023-05-14T09:05:07;63.14;70.00
74420;DHT22;62855;50.718;-2.460;2023-05-14T09:08:06;63.68;68.00
74420;DHT22;62855;50.718;-2.460;2023-05-14T09:11:06;64.04;67.00
74420;DHT22;62855;50.718;-2.460;2023-05-14T09:14:06;63.86;65.00
74420;DHT22;62855;50.718;-2.460;2023-05-14T09:17:06;63.86;65.00
74420;DHT22;62855;50.718;-2.460;2023-05-14T09:20:08;64.58;65.00
74420;DHT22;62855;50.718;-2.460;2023-05-14T09:23:06;64.94;64.00
74420;DHT22;62855;50.718;-2.460;2023-05-14T09:26:06;64.94;61.00
74420;DHT22;62855;50.718;-2.460;2023-05-14T09:29:06;64.94;61.00
74420;DHT22;62855;50.718;-2.460;2023-05-14T09:32:06;64.40;60.00
74420;DHT22;62855;50.718;-2.460;2023-05-14T09:35:11;64.04;60.00
74420;DHT22;62855;50.718;-2.460;2023-05-14T09:38:06;64.04;61.00
74420;DHT22;62855;50.718;-2.460;2023-05-14T09:41:06;64.04;61.00
74420;DHT22;62855;50.718;-2.460;2023-05-14T09:44:06;64.58;63.00
74420;DHT22;62855;50.718;-2.460;2023-05-14T09:47:06;65.12;63.00
74420;DHT22;62855;50.718;-2.460;2023-05-14T09:50:07;65.66;63.00
74420;DHT22;62855;50.718;-2.460;2023-05-14T09:53:07;66.38;63.00
74420;DHT22;62855;50.718;-2.460;2023-05-14T09:56:06;67.10;62.00
74420;DHT22;62855;50.718;-2.460;2023-05-14T09:59:06;67.10;60.00
74420;DHT22;62855;50.718;-2.460;2023-05-14T10:02:13;67.28;61.00
74420;DHT22;62855;50.718;-2.460;2023-05-14T10:05:07;67.46;60.00
74420;DHT22;62855;50.718;-2.460;2023-05-14T10:08:10;67.46;60.00
74420;DHT22;62855;50.718;-2.460;2023-05-14T10:11:10;67.10;58.00
74420;DHT22;62855;50.718;-2.460;2023-05-14T10:14:07;66.38;57.00
74420;DHT22;62855;50.718;-2.460;2023-05-14T10:17:06;66.02;59.00
74420;DHT22;62855;50.718;-2.460;2023-05-14T10:20:07;66.02;60.00
74420;DHT22;62855;50.718;-2.460;2023-05-14T10:23:06;66.38;60.00
74420;DHT22;62855;50.718;-2.460;2023-05-14T10:26:07;66.74;61.00
74420;DHT22;62855;50.718;-2.460;2023-05-14T10:29:06;66.92;60.00
74420;DHT22;62855;50.718;-2.460;2023-05-14T10:32:07;67.10;60.00
74420;DHT22;62855;50.718;-2.460;2023-05-14T10:35:14;67.64;60.00
74420;DHT22;62855;50.718;-2.460;2023-05-14T10:38:07;68.18;60.00
74420;DHT22;62855;50.718;-2.460;2023-05-14T10:41:09;68.54;59.00
74420;DHT22;62855;50.718;-2.460;2023-05-14T10:44:07;68.54;56.00
74420;DHT22;62855;50.718;-2.460;2023-05-14T10:47:06;68.54;56.00
74420;DHT22;62855;50.718;-2.460;2023-05-14T10:50:09;68.54;56.00
74420;DHT22;62855;50.718;-2.460;2023-05-14T10:53:09;68.72;55.00
74420;DHT22;62855;50.718;-2.460;2023-05-14T10:56:08;68.54;55.00
74420;DHT22;62855;50.718;-2.460;2023-05-14T10:59:06;68.54;55.00
74420;DHT22;62855;50.718;-2.460;2023-05-14T11:05:08;68.72;55.00
74420;DHT22;62855;50.718;-2.460;2023-05-14T11:08:07;68.36;54.00
74420;DHT22;62855;50.718;-2.460;2023-05-14T11:11:07;68.36;55.00
74420;DHT22;62855;50.718;-2.460;2023-05-14T11:14:06;68.72;56.00
74420;DHT22;62855;50.718;-2.460;2023-05-14T11:17:06;69.26;57.00
74420;DHT22;62855;50.718;-2.460;2023-05-14T11:20:07;69.80;56.00
74420;DHT22;62855;50.718;-2.460;2023-05-14T11:23:07;70.16;55.00
74420;DHT22;62855;50.718;-2.460;2023-05-14T11:26:07;70.34;54.00
74420;DHT22;62855;50.718;-2.460;2023-05-14T11:29:06;70.34;54.00
74420;DHT22;62855;50.718;-2.460;2023-05-14T11:32:06;70.34;53.00
74420;DHT22;62855;50.718;-2.460;2023-05-14T11:35:06;70.16;53.00
74420;DHT22;62855;50.718;-2.460;2023-05-14T11:38:06;69.62;53.00
74420;DHT22;62855;50.718;-2.460;2023-05-14T11:41:06;69.26;54.00
74420;DHT22;62855;50.718;-2.460;2023-05-14T11:44:06;68.90;54.00
74420;DHT22;62855;50.718;-2.460;2023-05-14T11:47:06;68.36;55.00
74420;DHT22;62855;50.718;-2.460;2023-05-14T11:50:07;67.64;55.00
74420;DHT22;62855;50.718;-2.460;2023-05-14T11:53:06;66.56;56.00
74420;DHT22;62855;50.718;-2.460;2023-05-14T11:56:06;65.66;57.00
74420;DHT22;62855;50.718;-2.460;2023-05-14T11:59:06;65.30;58.00
74420;DHT22;62855;50.718;-2.460;2023-05-14T12:02:09;65.12;60.00
74420;DHT22;62855;50.718;-2.460;2023-05-14T12:05:07;65.12;60.00
74420;DHT22;62855;50.718;-2.460;2023-05-14T12:08:19;65.30;60.00
74420;DHT22;62855;50.718;-2.460;2023-05-14T12:11:07;65.30;61.00
74420;DHT22;62855;50.718;-2.460;2023-05-14T12:14:10;65.48;61.00
74420;DHT22;62855;50.718;-2.460;2023-05-14T12:17:14;65.66;61.00
74420;DHT22;62855;50.718;-2.460;2023-05-14T12:20:08;66.02;61.00
74420;DHT22;62855;50.718;-2.460;2023-05-14T12:23:09;66.74;61.00
74420;DHT22;62855;50.718;-2.460;2023-05-14T12:26:07;67.28;61.00
74420;DHT22;62855;50.718;-2.460;2023-05-14T12:29:06;66.38;58.00
74420;DHT22;62855;50.718;-2.460;2023-05-14T12:32:08;65.84;59.00
74420;DHT22;62855;50.718;-2.460;2023-05-14T12:35:07;65.48;60.00
74420;DHT22;62855;50.718;-2.460;2023-05-14T12:38:07;65.48;60.00
74420;DHT22;62855;50.718;-2.460;2023-05-14T12:41:06;65.48;61.00
74420;DHT22;62855;50.718;-2.460;2023-05-14T12:44:06;65.48;61.00
74420;DHT22;62855;50.718;-2.460;2023-05-14T12:47:06;65.48;61.00
74420;DHT22;62855;50.718;-2.460;2023-05-14T12:50:07;65.48;61.00
74420;DHT22;62855;50.718;-2.460;2023-05-14T12:53:06;65.30;61.00
74420;DHT22;62855;50.718;-2.460;2023-05-14T12:56:06;65.30;60.00
74420;DHT22;62855;50.718;-2.460;2023-05-14T12:59:06;65.30;61.00
74420;DHT22;62855;50.718;-2.460;2023-05-14T13:02:07;65.48;61.00
74420;DHT22;62855;50.718;-2.460;2023-05-14T13:05:08;65.48;60.00
74420;DHT22;62855;50.718;-2.460;2023-05-14T13:08:06;65.66;60.00
74420;DHT22;62855;50.718;-2.460;2023-05-14T13:11:06;66.02;61.00
74420;DHT22;62855;50.718;-2.460;2023-05-14T13:14:06;66.02;60.00
74420;DHT22;62855;50.718;-2.460;2023-05-14T13:17:06;65.66;60.00
74420;DHT22;62855;50.718;-2.460;2023-05-14T13:20:07;65.66;60.00
74420;DHT22;62855;50.718;-2.460;2023-05-14T13:23:06;65.66;60.00
74420;DHT22;62855;50.718;-2.460;2023-05-14T13:26:06;65.66;60.00
74420;DHT22;62855;50.718;-2.460;2023-05-14T13:29:06;65.48;59.00
74420;DHT22;62855;50.718;-2.460;2023-05-14T13:32:06;64.76;59.00
74420;DHT22;62855;50.718;-2.460;2023-05-14T13:35:06;64.58;60.00
74420;DHT22;62855;50.718;-2.460;2023-05-14T13:38:06;64.58;60.00
74420;DHT22;62855;50.718;-2.460;2023-05-14T13:41:07;64.58;60.00
74420;DHT22;62855;50.718;-2.460;2023-05-14T13:44:06;64.58;60.00
74420;DHT22;62855;50.718;-2.460;2023-05-14T13:47:06;64.40;60.00
74420;DHT22;62855;50.718;-2.460;2023-05-14T13:50:07;64.40;60.00
74420;DHT22;62855;50.718;-2.460;2023-05-14T13:53:06;64.40;60.00
74420;DHT22;62855;50.718;-2.460;2023-05-14T13:56:06;64.58;60.00
74420;DHT22;62855;50.718;-2.460;2023-05-14T13:59:07;64.76;60.00
74420;DHT22;62855;50.718;-2.460;2023-05-14T14:02:07;64.76;60.00
74420;DHT22;62855;50.718;-2.460;2023-05-14T14:05:07;64.76;60.00
74420;DHT22;62855;50.718;-2.460;2023-05-14T14:08:06;64.94;60.00
74420;DHT22;62855;50.718;-2.460;2023-05-14T14:11:06;65.12;60.00
74420;DHT22;62855;50.718;-2.460;2023-05-14T14:14:06;65.48;60.00
74420;DHT22;62855;50.718;-2.460;2023-05-14T14:17:06;65.48;60.00
74420;DHT22;62855;50.718;-2.460;2023-05-14T14:20:07;65.48;60.00
74420;DHT22;62855;50.718;-2.460;2023-05-14T14:23:06;65.66;60.00
74420;DHT22;62855;50.718;-2.460;2023-05-14T14:26:06;65.84;60.00
74420;DHT22;62855;50.718;-2.460;2023-05-14T14:29:06;66.02;60.00
74420;DHT22;62855;50.718;-2.460;2023-05-14T14:32:06;66.02;60.00
74420;DHT22;62855;50.718;-2.460;2023-05-14T14:35:07;66.20;60.00
74420;DHT22;62855;50.718;-2.460;2023-05-14T14:38:06;66.38;60.00
74420;DHT22;62855;50.718;-2.460;2023-05-14T14:41:06;66.20;59.00
74420;DHT22;62855;50.718;-2.460;2023-05-14T14:44:06;66.20;59.00
74420;DHT22;62855;50.718;-2.460;2023-05-14T14:47:06;66.02;58.00
74420;DHT22;62855;50.718;-2.460;2023-05-14T14:50:07;65.84;59.00
74420;DHT22;62855;50.718;-2.460;2023-05-14T14:53:06;65.66;59.00
74420;DHT22;62855;50.718;-2.460;2023-05-14T14:56:06;65.84;59.00
74420;DHT22;62855;50.718;-2.460;2023-05-14T14:59:06;66.02;59.00
74420;DHT22;62855;50.718;-2.460;2023-05-14T15:02:07;66.20;58.00
74420;DHT22;62855;50.718;-2.460;2023-05-14T15:05:07;66.20;58.00
74420;DHT22;62855;50.718;-2.460;2023-05-14T15:08:06;66.02;57.00
74420;DHT22;62855;50.718;-2.460;2023-05-14T15:11:06;65.84;57.00
74420;DHT22;62855;50.718;-2.460;2023-05-14T15:14:06;65.12;57.00
74420;DHT22;62855;50.718;-2.460;2023-05-14T15:17:06;64.76;58.00
74420;DHT22;62855;50.718;-2.460;2023-05-14T15:20:07;64.58;59.00
74420;DHT22;62855;50.718;-2.460;2023-05-14T15:23:07;64.58;59.00
74420;DHT22;62855;50.718;-2.460;2023-05-14T15:26:06;64.40;59.00
74420;DHT22;62855;50.718;-2.460;2023-05-14T15:29:06;64.40;60.00
74420;DHT22;62855;50.718;-2.460;2023-05-14T15:32:06;64.22;59.00
74420;DHT22;62855;50.718;-2.460;2023-05-14T15:35:07;64.04;59.00
74420;DHT22;62855;50.718;-2.460;2023-05-14T15:38:06;63.68;59.00
74420;DHT22;62855;50.718;-2.460;2023-05-14T15:41:06;63.50;60.00
74420;DHT22;62855;50.718;-2.460;2023-05-14T15:44:06;63.32;60.00
74420;DHT22;62855;50.718;-2.460;2023-05-14T15:47:06;62.96;60.00
74420;DHT22;62855;50.718;-2.460;2023-05-14T15:50:07;62.60;60.00
74420;DHT22;62855;50.718;-2.460;2023-05-14T15:53:06;62.42;60.00
74420;DHT22;62855;50.718;-2.460;2023-05-14T15:56:06;62.24;63.00
74420;DHT22;62855;50.718;-2.460;2023-05-14T15:59:06;62.06;63.00
74420;DHT22;62855;50.718;-2.460;2023-05-14T16:02:07;61.70;63.00
74420;DHT22;62855;50.718;-2.460;2023-05-14T16:05:07;61.52;64.00
74420;DHT22;62855;50.718;-2.460;2023-05-14T16:08:07;61.34;64.00
74420;DHT22;62855;50.718;-2.460;2023-05-14T16:11:06;60.98;64.00
74420;DHT22;62855;50.718;-2.460;2023-05-14T16:14:06;60.62;65.00
74420;DHT22;62855;50.718;-2.460;2023-05-14T16:17:06;60.08;65.00
74420;DHT22;62855;50.718;-2.460;2023-05-14T16:20:07;59.72;66.00
74420;DHT22;62855;50.718;-2.460;2023-05-14T16:23:06;59.36;66.00
74420;DHT22;62855;50.718;-2.460;2023-05-14T16:26:06;59.18;67.00
74420;DHT22;62855;50.718;-2.460;2023-05-14T16:29:06;59.00;68.00
74420;DHT22;62855;50.718;-2.460;2023-05-14T16:32:06;59.00;69.00
74420;DHT22;62855;50.718;-2.460;2023-05-14T16:35:07;58.82;69.00
74420;DHT22;62855;50.718;-2.460;2023-05-14T16:38:06;58.82;70.00
74420;DHT22;62855;50.718;-2.460;2023-05-14T16:41:06;58.82;70.00
74420;DHT22;62855;50.718;-2.460;2023-05-14T16:44:06;58.82;70.00
74420;DHT22;62855;50.718;-2.460;2023-05-14T16:47:06;58.82;70.00
74420;DHT22;62855;50.718;-2.460;2023-05-14T16:50:08;59.00;70.00
74420;DHT22;62855;50.718;-2.460;2023-05-14T16:53:06;59.18;70.00
74420;DHT22;62855;50.718;-2.460;2023-05-14T16:56:06;59.36;70.00
74420;DHT22;62855;50.718;-2.460;2023-05-14T16:59:06;59.54;70.00
74420;DHT22;62855;50.718;-2.460;2023-05-14T17:02:06;59.72;70.00
74420;DHT22;62855;50.718;-2.460;2023-05-14T17:05:07;59.90;70.00
74420;DHT22;62855;50.718;-2.460;2023-05-14T17:08:06;60.08;70.00
74420;DHT22;62855;50.718;-2.460;2023-05-14T17:11:06;60.26;70.00
74420;DHT22;62855;50.718;-2.460;2023-05-14T17:14:06;60.62;70.00
74420;DHT22;62855;50.718;-2.460;2023-05-14T17:17:06;60.62;69.00
74420;DHT22;62855;50.718;-2.460;2023-05-14T17:20:07;60.62;68.00
74420;DHT22;62855;50.718;-2.460;2023-05-14T17:23:06;60.44;68.00
74420;DHT22;62855;50.718;-2.460;2023-05-14T17:26:06;60.26;68.00
74420;DHT22;62855;50.718;-2.460;2023-05-14T17:29:06;60.26;68.00
74420;DHT22;62855;50.718;-2.460;2023-05-14T17:32:06;60.08;68.00
74420;DHT22;62855;50.718;-2.460;2023-05-14T17:35:06;60.08;69.00
74420;DHT22;62855;50.718;-2.460;2023-05-14T17:38:06;60.08;69.00
74420;DHT22;62855;50.718;-2.460;2023-05-14T17:41:06;60.08;69.00
74420;DHT22;62855;50.718;-2.460;2023-05-14T17:44:06;59.90;69.00
74420;DHT22;62855;50.718;-2.460;2023-05-14T17:47:06;59.90;69.00
74420;DHT22;62855;50.718;-2.460;2023-05-14T17:50:07;59.90;70.00
74420;DHT22;62855;50.718;-2.460;2023-05-14T17:53:06;59.72;70.00
74420;DHT22;62855;50.718;-2.460;2023-05-14T17:56:06;59.72;70.00
74420;DHT22;62855;50.718;-2.460;2023-05-14T17:59:06;59.54;70.00
74420;DHT22;62855;50.718;-2.460;2023-05-14T18:02:06;59.54;70.00
74420;DHT22;62855;50.718;-2.460;2023-05-14T18:05:07;59.54;70.00
74420;DHT22;62855;50.718;-2.460;2023-05-14T18:08:06;59.54;70.00
74420;DHT22;62855;50.718;-2.460;2023-05-14T18:11:06;59.54;70.00
74420;DHT22;62855;50.718;-2.460;2023-05-14T18:14:06;59.54;70.00
74420;DHT22;62855;50.718;-2.460;2023-05-14T18:17:06;59.36;70.00
74420;DHT22;62855;50.718;-2.460;2023-05-14T18:20:07;59.36;70.00
74420;DHT22;62855;50.718;-2.460;2023-05-14T18:23:06;59.36;70.00
74420;DHT22;62855;50.718;-2.460;2023-05-14T18:26:06;59.36;70.00
74420;DHT22;62855;50.718;-2.460;2023-05-14T18:29:06;59.18;70.00
74420;DHT22;62855;50.718;-2.460;2023-05-14T18:32:07;59.18;70.00
74420;DHT22;62855;50.718;-2.460;2023-05-14T18:35:07;59.18;70.00
74420;DHT22;62855;50.718;-2.460;2023-05-14T18:38:06;59.00;70.00
74420;DHT22;62855;50.718;-2.460;2023-05-14T18:41:06;59.00;70.00